High Pnt, North Carolina
Current Conditions -  °F | °C
As of 8:21 PM on Sunday 23 Nov 2014 (Local Time) from KINT Reporting Station
Moderate Rain Moderate Rain  
Wind Chill: 45°   Ceiling: 500
Heat Index: 49°   Visibility: 3mi
Dew Point: 48°   Wind: 8mph
Humidity: 97%   Direction: 80°E
Pressure: 29.81"   Gusts: NA
Location:  35.9808°N, 80.1272°W
Report Text: KINT 240121Z 08007KT 3SM RA BR BKN005 OVC011 09/09 A2981 RMK AO2 P0012 T00940089
Loading
Personal Weather Stations






























Interactive Weather Map New forecast layout! Learn more

10-Day Weather Forecast

Advertisements
Track Severe Weather on mobile